sensor_id;sensor_type;location;lat;lon;timestamp;P1;durP1;ratioP1;P2;durP2;ratioP2
10517;SDS011;5307;42.548;22.968;2022-08-27T00:01:07;16.13;;;4.80;;
10517;SDS011;5307;42.548;22.968;2022-08-27T00:03:33;14.55;;;5.03;;
10517;SDS011;5307;42.548;22.968;2022-08-27T00:06:01;14.77;;;4.85;;
10517;SDS011;5307;42.548;22.968;2022-08-27T00:08:28;10.23;;;4.72;;
10517;SDS011;5307;42.548;22.968;2022-08-27T00:10:57;15.20;;;5.03;;
10517;SDS011;5307;42.548;22.968;2022-08-27T00:13:23;15.13;;;4.90;;
10517;SDS011;5307;42.548;22.968;2022-08-27T00:15:50;12.35;;;4.70;;
10517;SDS011;5307;42.548;22.968;2022-08-27T00:18:18;16.48;;;4.78;;
10517;SDS011;5307;42.548;22.968;2022-08-27T00:20:45;16.38;;;4.70;;
10517;SDS011;5307;42.548;22.968;2022-08-27T00:23:12;13.32;;;5.47;;
10517;SDS011;5307;42.548;22.968;2022-08-27T00:25:39;11.85;;;4.57;;
10517;SDS011;5307;42.548;22.968;2022-08-27T00:28:07;16.58;;;4.47;;
10517;SDS011;5307;42.548;22.968;2022-08-27T00:30:34;12.63;;;5.22;;
10517;SDS011;5307;42.548;22.968;2022-08-27T00:33:01;13.77;;;4.85;;
10517;SDS011;5307;42.548;22.968;2022-08-27T00:35:28;9.90;;;4.88;;
10517;SDS011;5307;42.548;22.968;2022-08-27T00:37:55;15.32;;;5.72;;
10517;SDS011;5307;42.548;22.968;2022-08-27T00:40:22;11.73;;;4.80;;
10517;SDS011;5307;42.548;22.968;2022-08-27T00:42:49;10.32;;;3.97;;
10517;SDS011;5307;42.548;22.968;2022-08-27T00:45:19;11.50;;;4.55;;
10517;SDS011;5307;42.548;22.968;2022-08-27T00:47:50;10.40;;;4.32;;
10517;SDS011;5307;42.548;22.968;2022-08-27T00:50:22;13.00;;;4.95;;
10517;SDS011;5307;42.548;22.968;2022-08-27T00:52:54;13.60;;;4.45;;
10517;SDS011;5307;42.548;22.968;2022-08-27T00:55:24;13.20;;;4.68;;
10517;SDS011;5307;42.548;22.968;2022-08-27T00:57:56;10.65;;;4.20;;
10517;SDS011;5307;42.548;22.968;2022-08-27T01:00:29;10.02;;;4.90;;
10517;SDS011;5307;42.548;22.968;2022-08-27T01:02:56;13.38;;;4.90;;
10517;SDS011;5307;42.548;22.968;2022-08-27T01:05:23;10.57;;;4.50;;
10517;SDS011;5307;42.548;22.968;2022-08-27T01:07:52;15.45;;;4.72;;
10517;SDS011;5307;42.548;22.968;2022-08-27T01:10:23;9.88;;;4.40;;
10517;SDS011;5307;42.548;22.968;2022-08-27T01:12:53;12.18;;;4.53;;
10517;SDS011;5307;42.548;22.968;2022-08-27T01:15:23;15.20;;;4.40;;
10517;SDS011;5307;42.548;22.968;2022-08-27T01:17:53;12.57;;;4.82;;
10517;SDS011;5307;42.548;22.968;2022-08-27T01:20:21;11.90;;;4.47;;
10517;SDS011;5307;42.548;22.968;2022-08-27T01:23:02;11.90;;;4.22;;
10517;SDS011;5307;42.548;22.968;2022-08-27T01:25:39;7.30;;;4.43;;
10517;SDS011;5307;42.548;22.968;2022-08-27T01:28:06;18.00;;;5.82;;
10517;SDS011;5307;42.548;22.968;2022-08-27T01:30:34;11.35;;;4.38;;
10517;SDS011;5307;42.548;22.968;2022-08-27T01:33:06;16.30;;;5.13;;
10517;SDS011;5307;42.548;22.968;2022-08-27T01:35:34;11.27;;;5.07;;
10517;SDS011;5307;42.548;22.968;2022-08-27T01:38:01;5.95;;;4.20;;
10517;SDS011;5307;42.548;22.968;2022-08-27T01:40:28;9.98;;;4.43;;
10517;SDS011;5307;42.548;22.968;2022-08-27T01:42:56;9.95;;;4.80;;
10517;SDS011;5307;42.548;22.968;2022-08-27T01:45:24;10.43;;;4.40;;
10517;SDS011;5307;42.548;22.968;2022-08-27T01:47:52;13.20;;;4.75;;
10517;SDS011;5307;42.548;22.968;2022-08-27T01:50:20;11.95;;;4.18;;
10517;SDS011;5307;42.548;22.968;2022-08-27T01:52:49;11.15;;;4.75;;
10517;SDS011;5307;42.548;22.968;2022-08-27T01:55:17;10.43;;;4.43;;
10517;SDS011;5307;42.548;22.968;2022-08-27T01:57:46;12.63;;;4.97;;
10517;SDS011;5307;42.548;22.968;2022-08-27T02:00:15;10.38;;;4.43;;
10517;SDS011;5307;42.548;22.968;2022-08-27T02:02:44;17.23;;;4.90;;
10517;SDS011;5307;42.548;22.968;2022-08-27T02:05:12;10.63;;;4.30;;
10517;SDS011;5307;42.548;22.968;2022-08-27T02:07:40;13.70;;;4.47;;
10517;SDS011;5307;42.548;22.968;2022-08-27T02:10:08;9.30;;;4.25;;
10517;SDS011;5307;42.548;22.968;2022-08-27T02:12:36;8.45;;;4.30;;
10517;SDS011;5307;42.548;22.968;2022-08-27T02:15:03;17.92;;;4.25;;
10517;SDS011;5307;42.548;22.968;2022-08-27T02:17:32;11.35;;;4.38;;
10517;SDS011;5307;42.548;22.968;2022-08-27T02:19:59;14.23;;;5.70;;
10517;SDS011;5307;42.548;22.968;2022-08-27T02:22:26;17.17;;;4.90;;
10517;SDS011;5307;42.548;22.968;2022-08-27T02:24:53;9.43;;;4.95;;
10517;SDS011;5307;42.548;22.968;2022-08-27T02:27:20;16.65;;;4.50;;
10517;SDS011;5307;42.548;22.968;2022-08-27T02:29:47;15.40;;;4.18;;
10517;SDS011;5307;42.548;22.968;2022-08-27T02:32:15;7.63;;;4.55;;
10517;SDS011;5307;42.548;22.968;2022-08-27T02:34:45;8.52;;;4.57;;
10517;SDS011;5307;42.548;22.968;2022-08-27T02:37:12;10.85;;;4.68;;
10517;SDS011;5307;42.548;22.968;2022-08-27T02:39:39;7.20;;;4.30;;
10517;SDS011;5307;42.548;22.968;2022-08-27T02:42:06;8.98;;;4.90;;
10517;SDS011;5307;42.548;22.968;2022-08-27T02:44:33;15.55;;;4.90;;
10517;SDS011;5307;42.548;22.968;2022-08-27T02:47:00;10.95;;;4.63;;
10517;SDS011;5307;42.548;22.968;2022-08-27T02:49:27;12.32;;;5.00;;
10517;SDS011;5307;42.548;22.968;2022-08-27T02:51:56;15.45;;;5.07;;
10517;SDS011;5307;42.548;22.968;2022-08-27T02:54:24;11.43;;;5.10;;
10517;SDS011;5307;42.548;22.968;2022-08-27T02:56:52;6.65;;;4.50;;
10517;SDS011;5307;42.548;22.968;2022-08-27T02:59:20;18.48;;;5.57;;
10517;SDS011;5307;42.548;22.968;2022-08-27T03:01:47;13.40;;;5.10;;
10517;SDS011;5307;42.548;22.968;2022-08-27T03:04:14;7.80;;;4.95;;
10517;SDS011;5307;42.548;22.968;2022-08-27T03:06:42;7.10;;;4.78;;
10517;SDS011;5307;42.548;22.968;2022-08-27T03:09:11;12.15;;;5.03;;
10517;SDS011;5307;42.548;22.968;2022-08-27T03:11:38;11.75;;;4.65;;
10517;SDS011;5307;42.548;22.968;2022-08-27T03:14:05;15.75;;;4.55;;
10517;SDS011;5307;42.548;22.968;2022-08-27T03:16:32;10.45;;;5.55;;
10517;SDS011;5307;42.548;22.968;2022-08-27T03:18:59;14.90;;;4.90;;
10517;SDS011;5307;42.548;22.968;2022-08-27T03:21:25;19.75;;;5.10;;
10517;SDS011;5307;42.548;22.968;2022-08-27T03:23:52;10.02;;;4.90;;
10517;SDS011;5307;42.548;22.968;2022-08-27T03:26:20;13.93;;;4.85;;
10517;SDS011;5307;42.548;22.968;2022-08-27T03:28:47;13.00;;;4.95;;
10517;SDS011;5307;42.548;22.968;2022-08-27T03:31:15;8.60;;;4.28;;
10517;SDS011;5307;42.548;22.968;2022-08-27T03:33:50;9.63;;;5.07;;
10517;SDS011;5307;42.548;22.968;2022-08-27T03:36:19;12.77;;;5.15;;
10517;SDS011;5307;42.548;22.968;2022-08-27T03:38:46;10.60;;;5.13;;
10517;SDS011;5307;42.548;22.968;2022-08-27T03:41:12;10.90;;;4.50;;
10517;SDS011;5307;42.548;22.968;2022-08-27T03:43:41;11.18;;;4.88;;
10517;SDS011;5307;42.548;22.968;2022-08-27T03:46:08;12.18;;;4.65;;
10517;SDS011;5307;42.548;22.968;2022-08-27T03:48:35;12.85;;;4.75;;
10517;SDS011;5307;42.548;22.968;2022-08-27T03:51:03;15.00;;;5.00;;
10517;SDS011;5307;42.548;22.968;2022-08-27T03:53:32;9.93;;;4.95;;
10517;SDS011;5307;42.548;22.968;2022-08-27T03:55:59;18.27;;;5.15;;
10517;SDS011;5307;42.548;22.968;2022-08-27T03:58:26;11.23;;;4.82;;
10517;SDS011;5307;42.548;22.968;2022-08-27T04:00:54;12.50;;;4.60;;
10517;SDS011;5307;42.548;22.968;2022-08-27T04:03:21;11.18;;;5.47;;
10517;SDS011;5307;42.548;22.968;2022-08-27T04:05:50;15.77;;;5.00;;
10517;SDS011;5307;42.548;22.968;2022-08-27T04:08:18;11.90;;;4.93;;
10517;SDS011;5307;42.548;22.968;2022-08-27T04:10:45;11.75;;;5.57;;
10517;SDS011;5307;42.548;22.968;2022-08-27T04:13:12;15.55;;;6.13;;
10517;SDS011;5307;42.548;22.968;2022-08-27T04:15:41;16.92;;;5.40;;
10517;SDS011;5307;42.548;22.968;2022-08-27T04:18:10;23.70;;;6.03;;
10517;SDS011;5307;42.548;22.968;2022-08-27T04:20:40;22.08;;;5.60;;
10517;SDS011;5307;42.548;22.968;2022-08-27T04:23:07;13.60;;;5.57;;
10517;SDS011;5307;42.548;22.968;2022-08-27T04:25:37;24.88;;;5.85;;
10517;SDS011;5307;42.548;22.968;2022-08-27T04:28:04;13.25;;;6.13;;
10517;SDS011;5307;42.548;22.968;2022-08-27T04:30:31;14.68;;;5.82;;
10517;SDS011;5307;42.548;22.968;2022-08-27T04:32:58;19.58;;;6.63;;
10517;SDS011;5307;42.548;22.968;2022-08-27T04:35:26;16.17;;;5.68;;
10517;SDS011;5307;42.548;22.968;2022-08-27T04:37:53;17.25;;;6.43;;
10517;SDS011;5307;42.548;22.968;2022-08-27T04:40:20;15.20;;;5.85;;
10517;SDS011;5307;42.548;22.968;2022-08-27T04:42:46;17.50;;;5.28;;
10517;SDS011;5307;42.548;22.968;2022-08-27T04:45:13;17.83;;;6.20;;
10517;SDS011;5307;42.548;22.968;2022-08-27T04:47:40;20.83;;;6.43;;
10517;SDS011;5307;42.548;22.968;2022-08-27T04:50:07;17.77;;;6.47;;
10517;SDS011;5307;42.548;22.968;2022-08-27T04:52:35;14.23;;;5.97;;
10517;SDS011;5307;42.548;22.968;2022-08-27T04:55:02;22.67;;;6.43;;
10517;SDS011;5307;42.548;22.968;2022-08-27T04:57:30;19.38;;;6.43;;
10517;SDS011;5307;42.548;22.968;2022-08-27T04:59:58;22.95;;;7.00;;
10517;SDS011;5307;42.548;22.968;2022-08-27T05:02:25;20.70;;;6.82;;
10517;SDS011;5307;42.548;22.968;2022-08-27T05:04:52;15.45;;;6.88;;
10517;SDS011;5307;42.548;22.968;2022-08-27T05:07:19;24.80;;;7.10;;
10517;SDS011;5307;42.548;22.968;2022-08-27T05:09:47;19.02;;;7.28;;
10517;SDS011;5307;42.548;22.968;2022-08-27T05:12:14;13.70;;;6.93;;
10517;SDS011;5307;42.548;22.968;2022-08-27T05:14:41;13.93;;;6.97;;
10517;SDS011;5307;42.548;22.968;2022-08-27T05:17:07;21.50;;;7.18;;
10517;SDS011;5307;42.548;22.968;2022-08-27T05:19:34;18.05;;;6.82;;
10517;SDS011;5307;42.548;22.968;2022-08-27T05:22:01;20.13;;;7.38;;
10517;SDS011;5307;42.548;22.968;2022-08-27T05:24:28;12.88;;;6.85;;
10517;SDS011;5307;42.548;22.968;2022-08-27T05:26:57;20.13;;;7.45;;
10517;SDS011;5307;42.548;22.968;2022-08-27T05:29:24;21.92;;;7.68;;
10517;SDS011;5307;42.548;22.968;2022-08-27T05:31:51;18.80;;;7.43;;
10517;SDS011;5307;42.548;22.968;2022-08-27T05:34:18;19.85;;;7.18;;
10517;SDS011;5307;42.548;22.968;2022-08-27T05:36:45;19.63;;;7.57;;
10517;SDS011;5307;42.548;22.968;2022-08-27T05:39:12;24.83;;;7.13;;
10517;SDS011;5307;42.548;22.968;2022-08-27T05:41:39;17.33;;;7.60;;
10517;SDS011;5307;42.548;22.968;2022-08-27T05:44:08;19.00;;;7.45;;
10517;SDS011;5307;42.548;22.968;2022-08-27T05:46:37;22.75;;;7.35;;
10517;SDS011;5307;42.548;22.968;2022-08-27T05:49:04;17.13;;;7.28;;
10517;SDS011;5307;42.548;22.968;2022-08-27T05:51:32;16.30;;;8.18;;
10517;SDS011;5307;42.548;22.968;2022-08-27T05:54:01;15.40;;;7.32;;
10517;SDS011;5307;42.548;22.968;2022-08-27T05:56:31;17.55;;;7.97;;
10517;SDS011;5307;42.548;22.968;2022-08-27T05:58:58;16.35;;;6.70;;
10517;SDS011;5307;42.548;22.968;2022-08-27T06:01:44;12.98;;;6.65;;
10517;SDS011;5307;42.548;22.968;2022-08-27T06:04:12;16.20;;;7.30;;
10517;SDS011;5307;42.548;22.968;2022-08-27T06:06:41;20.15;;;6.47;;
10517;SDS011;5307;42.548;22.968;2022-08-27T06:09:12;18.63;;;7.03;;
10517;SDS011;5307;42.548;22.968;2022-08-27T06:11:41;18.88;;;6.70;;
10517;SDS011;5307;42.548;22.968;2022-08-27T06:14:07;16.13;;;6.53;;
10517;SDS011;5307;42.548;22.968;2022-08-27T06:16:36;23.25;;;7.03;;
10517;SDS011;5307;42.548;22.968;2022-08-27T06:19:06;18.33;;;6.55;;
10517;SDS011;5307;42.548;22.968;2022-08-27T06:21:36;16.55;;;6.43;;
10517;SDS011;5307;42.548;22.968;2022-08-27T06:24:03;12.32;;;5.70;;
10517;SDS011;5307;42.548;22.968;2022-08-27T06:26:30;20.73;;;6.28;;
10517;SDS011;5307;42.548;22.968;2022-08-27T06:29:00;16.25;;;6.55;;
10517;SDS011;5307;42.548;22.968;2022-08-27T06:31:27;20.17;;;6.15;;
10517;SDS011;5307;42.548;22.968;2022-08-27T06:33:57;20.63;;;6.75;;
10517;SDS011;5307;42.548;22.968;2022-08-27T06:36:26;25.52;;;7.68;;
10517;SDS011;5307;42.548;22.968;2022-08-27T06:38:53;14.80;;;6.22;;
10517;SDS011;5307;42.548;22.968;2022-08-27T06:41:22;20.88;;;7.40;;
10517;SDS011;5307;42.548;22.968;2022-08-27T06:43:51;22.17;;;6.60;;
10517;SDS011;5307;42.548;22.968;2022-08-27T06:46:20;17.17;;;7.13;;
10517;SDS011;5307;42.548;22.968;2022-08-27T06:48:50;18.50;;;6.70;;
10517;SDS011;5307;42.548;22.968;2022-08-27T06:51:18;12.27;;;6.40;;
10517;SDS011;5307;42.548;22.968;2022-08-27T06:53:50;14.32;;;7.35;;
10517;SDS011;5307;42.548;22.968;2022-08-27T06:56:18;13.65;;;6.55;;
10517;SDS011;5307;42.548;22.968;2022-08-27T06:58:46;20.52;;;6.05;;
10517;SDS011;5307;42.548;22.968;2022-08-27T07:01:15;14.13;;;6.28;;
10517;SDS011;5307;42.548;22.968;2022-08-27T07:03:43;23.85;;;5.60;;
10517;SDS011;5307;42.548;22.968;2022-08-27T07:06:10;14.93;;;6.72;;
10517;SDS011;5307;42.548;22.968;2022-08-27T07:08:38;21.10;;;5.72;;
10517;SDS011;5307;42.548;22.968;2022-08-27T07:11:07;20.23;;;4.95;;
10517;SDS011;5307;42.548;22.968;2022-08-27T07:13:35;17.63;;;5.45;;
10517;SDS011;5307;42.548;22.968;2022-08-27T07:16:03;15.52;;;4.97;;
10517;SDS011;5307;42.548;22.968;2022-08-27T07:18:31;17.80;;;5.13;;
10517;SDS011;5307;42.548;22.968;2022-08-27T07:20:58;13.68;;;5.65;;
10517;SDS011;5307;42.548;22.968;2022-08-27T07:23:25;14.88;;;5.40;;
10517;SDS011;5307;42.548;22.968;2022-08-27T07:25:52;19.83;;;5.20;;
10517;SDS011;5307;42.548;22.968;2022-08-27T07:28:20;17.85;;;5.35;;
10517;SDS011;5307;42.548;22.968;2022-08-27T07:30:47;17.60;;;5.45;;
10517;SDS011;5307;42.548;22.968;2022-08-27T07:33:14;17.35;;;5.00;;
10517;SDS011;5307;42.548;22.968;2022-08-27T07:35:41;12.65;;;5.15;;
10517;SDS011;5307;42.548;22.968;2022-08-27T07:38:08;10.00;;;4.57;;
10517;SDS011;5307;42.548;22.968;2022-08-27T07:40:35;14.20;;;5.20;;
10517;SDS011;5307;42.548;22.968;2022-08-27T07:43:03;22.80;;;5.10;;
10517;SDS011;5307;42.548;22.968;2022-08-27T07:45:49;13.35;;;3.95;;
10517;SDS011;5307;42.548;22.968;2022-08-27T07:48:20;15.65;;;4.65;;
10517;SDS011;5307;42.548;22.968;2022-08-27T07:50:47;14.23;;;4.55;;
10517;SDS011;5307;42.548;22.968;2022-08-27T07:53:14;13.47;;;4.43;;
10517;SDS011;5307;42.548;22.968;2022-08-27T07:55:41;10.05;;;4.80;;
10517;SDS011;5307;42.548;22.968;2022-08-27T07:58:09;14.25;;;4.70;;
10517;SDS011;5307;42.548;22.968;2022-08-27T08:00:39;17.77;;;4.38;;
10517;SDS011;5307;42.548;22.968;2022-08-27T08:03:07;16.55;;;4.43;;
10517;SDS011;5307;42.548;22.968;2022-08-27T08:05:34;13.35;;;4.75;;
10517;SDS011;5307;42.548;22.968;2022-08-27T08:08:03;13.23;;;4.75;;
10517;SDS011;5307;42.548;22.968;2022-08-27T08:10:31;14.38;;;4.00;;
10517;SDS011;5307;42.548;22.968;2022-08-27T08:13:00;16.27;;;4.40;;
10517;SDS011;5307;42.548;22.968;2022-08-27T08:15:27;15.82;;;4.40;;
10517;SDS011;5307;42.548;22.968;2022-08-27T08:17:55;16.65;;;4.05;;
10517;SDS011;5307;42.548;22.968;2022-08-27T08:20:23;11.23;;;3.67;;
10517;SDS011;5307;42.548;22.968;2022-08-27T08:22:50;16.85;;;3.90;;
10517;SDS011;5307;42.548;22.968;2022-08-27T08:25:16;10.18;;;4.40;;
10517;SDS011;5307;42.548;22.968;2022-08-27T08:27:43;20.92;;;4.60;;
10517;SDS011;5307;42.548;22.968;2022-08-27T08:30:12;10.25;;;4.53;;
10517;SDS011;5307;42.548;22.968;2022-08-27T08:32:39;12.60;;;4.60;;
10517;SDS011;5307;42.548;22.968;2022-08-27T08:35:07;10.48;;;4.53;;
10517;SDS011;5307;42.548;22.968;2022-08-27T08:37:36;16.20;;;4.65;;
10517;SDS011;5307;42.548;22.968;2022-08-27T08:40:04;9.10;;;4.32;;
10517;SDS011;5307;42.548;22.968;2022-08-27T08:42:35;12.05;;;4.35;;
10517;SDS011;5307;42.548;22.968;2022-08-27T08:45:09;17.02;;;4.63;;
10517;SDS011;5307;42.548;22.968;2022-08-27T08:47:40;8.20;;;3.88;;
10517;SDS011;5307;42.548;22.968;2022-08-27T08:50:11;18.95;;;4.45;;
10517;SDS011;5307;42.548;22.968;2022-08-27T08:52:47;13.18;;;3.70;;
10517;SDS011;5307;42.548;22.968;2022-08-27T08:55:30;19.23;;;4.93;;
10517;SDS011;5307;42.548;22.968;2022-08-27T08:58:09;11.50;;;4.72;;
10517;SDS011;5307;42.548;22.968;2022-08-27T09:00:41;10.02;;;3.92;;
10517;SDS011;5307;42.548;22.968;2022-08-27T09:03:10;15.75;;;4.07;;
10517;SDS011;5307;42.548;22.968;2022-08-27T09:05:39;6.70;;;3.47;;
10517;SDS011;5307;42.548;22.968;2022-08-27T09:08:14;17.67;;;3.78;;
10517;SDS011;5307;42.548;22.968;2022-08-27T09:10:47;10.90;;;3.72;;
10517;SDS011;5307;42.548;22.968;2022-08-27T09:13:20;12.05;;;3.70;;
10517;SDS011;5307;42.548;22.968;2022-08-27T09:15:50;16.38;;;3.83;;
10517;SDS011;5307;42.548;22.968;2022-08-27T09:18:22;12.30;;;4.03;;
10517;SDS011;5307;42.548;22.968;2022-08-27T09:20:50;15.60;;;4.35;;
10517;SDS011;5307;42.548;22.968;2022-08-27T09:23:29;16.77;;;4.50;;
10517;SDS011;5307;42.548;22.968;2022-08-27T09:26:02;20.02;;;3.97;;
10517;SDS011;5307;42.548;22.968;2022-08-27T09:28:29;14.95;;;4.65;;
10517;SDS011;5307;42.548;22.968;2022-08-27T09:31:14;11.77;;;4.30;;
10517;SDS011;5307;42.548;22.968;2022-08-27T09:33:42;16.98;;;3.75;;
10517;SDS011;5307;42.548;22.968;2022-08-27T09:36:11;10.27;;;3.92;;
10517;SDS011;5307;42.548;22.968;2022-08-27T09:38:50;13.38;;;4.68;;
10517;SDS011;5307;42.548;22.968;2022-08-27T09:41:22;8.00;;;4.47;;
10517;SDS011;5307;42.548;22.968;2022-08-27T09:43:57;16.08;;;5.03;;
10517;SDS011;5307;42.548;22.968;2022-08-27T09:46:25;11.48;;;5.28;;
10517;SDS011;5307;42.548;22.968;2022-08-27T09:48:53;24.13;;;5.47;;
10517;SDS011;5307;42.548;22.968;2022-08-27T09:51:21;12.13;;;4.55;;
10517;SDS011;5307;42.548;22.968;2022-08-27T09:53:51;14.70;;;4.38;;
10517;SDS011;5307;42.548;22.968;2022-08-27T09:56:22;17.02;;;4.65;;
10517;SDS011;5307;42.548;22.968;2022-08-27T09:58:54;20.80;;;4.65;;
10517;SDS011;5307;42.548;22.968;2022-08-27T10:01:26;19.02;;;4.65;;
10517;SDS011;5307;42.548;22.968;2022-08-27T10:04:02;18.30;;;4.00;;
10517;SDS011;5307;42.548;22.968;2022-08-27T10:06:31;13.02;;;4.22;;
10517;SDS011;5307;42.548;22.968;2022-08-27T10:09:00;10.10;;;4.10;;
10517;SDS011;5307;42.548;22.968;2022-08-27T10:11:32;9.90;;;4.03;;
10517;SDS011;5307;42.548;22.968;2022-08-27T10:14:04;14.82;;;4.50;;
10517;SDS011;5307;42.548;22.968;2022-08-27T10:16:48;21.35;;;4.78;;
10517;SDS011;5307;42.548;22.968;2022-08-27T10:19:25;12.02;;;4.50;;
10517;SDS011;5307;42.548;22.968;2022-08-27T10:22:07;14.73;;;4.22;;
10517;SDS011;5307;42.548;22.968;2022-08-27T10:24:56;22.30;;;5.43;;
10517;SDS011;5307;42.548;22.968;2022-08-27T10:27:33;23.27;;;4.35;;
10517;SDS011;5307;42.548;22.968;2022-08-27T10:30:09;15.93;;;3.60;;
10517;SDS011;5307;42.548;22.968;2022-08-27T10:32:45;23.27;;;4.57;;
10517;SDS011;5307;42.548;22.968;2022-08-27T10:35:21;17.80;;;4.82;;
10517;SDS011;5307;42.548;22.968;2022-08-27T10:37:56;19.80;;;4.65;;
10517;SDS011;5307;42.548;22.968;2022-08-27T10:40:35;12.95;;;4.78;;
10517;SDS011;5307;42.548;22.968;2022-08-27T10:43:15;15.43;;;4.85;;
10517;SDS011;5307;42.548;22.968;2022-08-27T10:45:55;11.50;;;4.35;;
10517;SDS011;5307;42.548;22.968;2022-08-27T10:48:33;7.63;;;4.30;;
10517;SDS011;5307;42.548;22.968;2022-08-27T10:51:05;15.35;;;4.22;;
10517;SDS011;5307;42.548;22.968;2022-08-27T10:53:41;14.45;;;4.30;;
10517;SDS011;5307;42.548;22.968;2022-08-27T10:56:18;13.30;;;4.68;;
10517;SDS011;5307;42.548;22.968;2022-08-27T10:58:58;19.65;;;4.68;;
10517;SDS011;5307;42.548;22.968;2022-08-27T11:01:34;17.88;;;4.55;;
10517;SDS011;5307;42.548;22.968;2022-08-27T11:04:09;18.05;;;4.55;;
10517;SDS011;5307;42.548;22.968;2022-08-27T11:06:41;11.30;;;4.13;;
10517;SDS011;5307;42.548;22.968;2022-08-27T11:09:15;14.15;;;4.32;;
10517;SDS011;5307;42.548;22.968;2022-08-27T11:11:47;20.50;;;4.72;;
10517;SDS011;5307;42.548;22.968;2022-08-27T11:14:19;17.00;;;4.25;;
10517;SDS011;5307;42.548;22.968;2022-08-27T11:16:54;11.18;;;4.45;;
10517;SDS011;5307;42.548;22.968;2022-08-27T11:19:29;19.20;;;4.70;;
10517;SDS011;5307;42.548;22.968;2022-08-27T11:22:04;11.05;;;4.55;;
10517;SDS011;5307;42.548;22.968;2022-08-27T11:24:37;17.77;;;4.68;;
10517;SDS011;5307;42.548;22.968;2022-08-27T11:27:11;11.18;;;4.07;;
10517;SDS011;5307;42.548;22.968;2022-08-27T11:29:42;19.45;;;3.95;;
10517;SDS011;5307;42.548;22.968;2022-08-27T11:32:15;16.50;;;5.13;;
10517;SDS011;5307;42.548;22.968;2022-08-27T11:34:55;15.05;;;5.30;;
10517;SDS011;5307;42.548;22.968;2022-08-27T11:37:37;12.07;;;4.40;;
10517;SDS011;5307;42.548;22.968;2022-08-27T11:40:25;13.73;;;4.38;;
10517;SDS011;5307;42.548;22.968;2022-08-27T11:43:04;9.95;;;4.13;;
10517;SDS011;5307;42.548;22.968;2022-08-27T11:45:33;14.32;;;4.93;;
10517;SDS011;5307;42.548;22.968;2022-08-27T11:48:13;12.38;;;4.43;;
10517;SDS011;5307;42.548;22.968;2022-08-27T11:50:51;22.27;;;4.90;;
10517;SDS011;5307;42.548;22.968;2022-08-27T11:53:22;19.17;;;4.32;;
10517;SDS011;5307;42.548;22.968;2022-08-27T11:55:51;11.00;;;4.30;;
10517;SDS011;5307;42.548;22.968;2022-08-27T11:58:24;15.52;;;4.78;;
10517;SDS011;5307;42.548;22.968;2022-08-27T12:00:53;8.27;;;4.18;;
10517;SDS011;5307;42.548;22.968;2022-08-27T12:03:25;16.30;;;4.47;;
10517;SDS011;5307;42.548;22.968;2022-08-27T12:06:08;11.27;;;3.97;;
10517;SDS011;5307;42.548;22.968;2022-08-27T12:08:43;10.57;;;4.30;;
10517;SDS011;5307;42.548;22.968;2022-08-27T12:14:08;15.00;;;4.03;;
10517;SDS011;5307;42.548;22.968;2022-08-27T12:16:42;9.27;;;4.18;;
10517;SDS011;5307;42.548;22.968;2022-08-27T12:19:21;7.95;;;3.88;;
10517;SDS011;5307;42.548;22.968;2022-08-27T12:22:03;12.30;;;4.50;;
10517;SDS011;5307;42.548;22.968;2022-08-27T12:24:42;10.63;;;4.30;;
10517;SDS011;5307;42.548;22.968;2022-08-27T12:27:25;8.45;;;3.80;;
10517;SDS011;5307;42.548;22.968;2022-08-27T12:29:57;15.23;;;4.20;;
10517;SDS011;5307;42.548;22.968;2022-08-27T12:32:28;11.50;;;4.10;;
10517;SDS011;5307;42.548;22.968;2022-08-27T12:35:01;12.48;;;4.03;;
10517;SDS011;5307;42.548;22.968;2022-08-27T12:37:35;12.38;;;4.88;;
10517;SDS011;5307;42.548;22.968;2022-08-27T12:40:06;11.65;;;3.88;;
10517;SDS011;5307;42.548;22.968;2022-08-27T12:42:38;7.20;;;4.07;;
10517;SDS011;5307;42.548;22.968;2022-08-27T12:45:07;11.77;;;3.90;;
10517;SDS011;5307;42.548;22.968;2022-08-27T12:47:43;15.68;;;4.30;;
10517;SDS011;5307;42.548;22.968;2022-08-27T12:50:10;12.63;;;4.22;;
10517;SDS011;5307;42.548;22.968;2022-08-27T12:52:47;14.88;;;4.38;;
10517;SDS011;5307;42.548;22.968;2022-08-27T12:55:30;12.00;;;3.70;;
10517;SDS011;5307;42.548;22.968;2022-08-27T12:58:07;16.92;;;4.88;;
10517;SDS011;5307;42.548;22.968;2022-08-27T13:00:50;14.40;;;4.25;;
10517;SDS011;5307;42.548;22.968;2022-08-27T13:03:28;19.20;;;4.53;;
10517;SDS011;5307;42.548;22.968;2022-08-27T13:05:58;11.48;;;4.10;;
10517;SDS011;5307;42.548;22.968;2022-08-27T13:08:27;20.90;;;4.72;;
10517;SDS011;5307;42.548;22.968;2022-08-27T13:11:08;13.63;;;4.30;;
10517;SDS011;5307;42.548;22.968;2022-08-27T13:13:36;13.82;;;4.50;;
10517;SDS011;5307;42.548;22.968;2022-08-27T13:16:04;19.13;;;4.53;;
10517;SDS011;5307;42.548;22.968;2022-08-27T13:18:31;12.55;;;4.10;;
10517;SDS011;5307;42.548;22.968;2022-08-27T13:21:12;12.63;;;4.45;;
10517;SDS011;5307;42.548;22.968;2022-08-27T13:23:44;13.02;;;4.38;;
10517;SDS011;5307;42.548;22.968;2022-08-27T13:26:20;18.98;;;5.47;;
10517;SDS011;5307;42.548;22.968;2022-08-27T13:28:47;20.17;;;4.82;;
10517;SDS011;5307;42.548;22.968;2022-08-27T13:31:17;17.90;;;4.60;;
10517;SDS011;5307;42.548;22.968;2022-08-27T13:33:45;11.77;;;4.88;;
10517;SDS011;5307;42.548;22.968;2022-08-27T13:36:12;16.35;;;5.20;;
10517;SDS011;5307;42.548;22.968;2022-08-27T13:38:40;13.80;;;5.18;;
10517;SDS011;5307;42.548;22.968;2022-08-27T13:41:10;11.65;;;4.88;;
10517;SDS011;5307;42.548;22.968;2022-08-27T13:43:48;14.90;;;4.63;;
10517;SDS011;5307;42.548;22.968;2022-08-27T13:46:17;13.57;;;5.13;;
10517;SDS011;5307;42.548;22.968;2022-08-27T13:48:48;20.08;;;5.10;;
10517;SDS011;5307;42.548;22.968;2022-08-27T13:51:22;17.98;;;4.78;;
10517;SDS011;5307;42.548;22.968;2022-08-27T13:53:52;11.07;;;4.50;;
10517;SDS011;5307;42.548;22.968;2022-08-27T13:56:38;12.98;;;4.47;;
10517;SDS011;5307;42.548;22.968;2022-08-27T13:59:08;16.08;;;4.97;;
10517;SDS011;5307;42.548;22.968;2022-08-27T14:01:39;12.65;;;5.28;;
10517;SDS011;5307;42.548;22.968;2022-08-27T14:04:08;9.45;;;4.40;;
10517;SDS011;5307;42.548;22.968;2022-08-27T14:06:46;17.55;;;5.20;;
10517;SDS011;5307;42.548;22.968;2022-08-27T14:09:15;17.63;;;5.00;;
10517;SDS011;5307;42.548;22.968;2022-08-27T14:11:46;11.43;;;4.43;;
10517;SDS011;5307;42.548;22.968;2022-08-27T14:14:13;18.98;;;5.18;;
10517;SDS011;5307;42.548;22.968;2022-08-27T14:16:44;14.95;;;5.93;;
10517;SDS011;5307;42.548;22.968;2022-08-27T14:19:24;10.77;;;4.65;;
10517;SDS011;5307;42.548;22.968;2022-08-27T14:21:53;10.95;;;4.68;;
10517;SDS011;5307;42.548;22.968;2022-08-27T14:24:21;16.08;;;5.32;;
10517;SDS011;5307;42.548;22.968;2022-08-27T14:26:48;20.27;;;5.18;;
10517;SDS011;5307;42.548;22.968;2022-08-27T14:29:16;16.67;;;4.40;;
10517;SDS011;5307;42.548;22.968;2022-08-27T14:31:44;13.32;;;5.22;;
10517;SDS011;5307;42.548;22.968;2022-08-27T14:34:12;10.88;;;4.88;;
10517;SDS011;5307;42.548;22.968;2022-08-27T14:36:39;10.80;;;4.53;;
10517;SDS011;5307;42.548;22.968;2022-08-27T14:39:08;12.45;;;4.70;;
10517;SDS011;5307;42.548;22.968;2022-08-27T14:41:36;11.90;;;4.88;;
10517;SDS011;5307;42.548;22.968;2022-08-27T14:44:03;13.50;;;5.05;;
10517;SDS011;5307;42.548;22.968;2022-08-27T14:46:30;10.13;;;4.25;;
10517;SDS011;5307;42.548;22.968;2022-08-27T14:49:03;13.93;;;4.68;;
10517;SDS011;5307;42.548;22.968;2022-08-27T14:51:35;10.40;;;4.80;;
10517;SDS011;5307;42.548;22.968;2022-08-27T14:54:02;10.65;;;4.85;;
10517;SDS011;5307;42.548;22.968;2022-08-27T14:56:29;18.15;;;5.40;;